Time;durP1;ratioP1;P1;durP2;ratioP2;P2;SDS_P1;SDS_P2;PMS_P1;PMS_P2;Temp;Humidity;BMP_temperature;BMP_pressure;BME280_temperature;BME280_humidity;BME280_pressure;Samples;Min_cycle;Max_cycle;Signal;HPM_P1;HPM_P2
2023/08/13 00:02:08;;;;;;;6.93;3.25;;;;;;;21.70;nan;95625.81;5072743;28;20024;-82
2023/08/13 00:04:33;;;;;;;3.22;2.40;;;;;;;21.86;nan;95634.88;5073270;28;20526;-82
2023/08/13 00:06:59;;;;;;;5.07;3.10;;;;;;;21.99;nan;95658.09;5072407;28;20036;-82
2023/08/13 00:09:25;;;;;;;4.10;2.83;;;;;;;21.40;nan;95553.09;5069053;28;20038;-82
2023/08/13 00:11:50;;;;;;;6.30;3.25;;;;;;;21.41;nan;95551.97;5071209;28;20055;-82
2023/08/13 00:14:16;;;;;;;3.70;2.92;;;;;;;22.11;nan;95663.53;5069402;28;20212;-82
2023/08/13 00:16:41;;;;;;;5.22;3.10;;;;;;;21.80;nan;95614.59;5072138;28;20126;-81
2023/08/13 00:19:07;;;;;;;5.47;2.85;;;;;;;21.84;nan;95627.09;5069799;28;20082;-82
2023/08/13 00:21:32;;;;;;;4.15;3.15;;;;;;;22.11;nan;95660.06;5069925;28;20033;-82
2023/08/13 00:23:57;;;;;;;5.47;2.88;;;;;;;21.88;nan;95636.13;5069175;28;20036;-82
2023/08/13 00:26:23;;;;;;;5.70;2.70;;;;;;;22.01;nan;95653.16;5070304;28;20029;-82
2023/08/13 00:28:48;;;;;;;7.65;2.92;;;;;;;21.81;nan;95616.19;5065815;28;20040;-82
2023/08/13 00:31:14;;;;;;;7.65;2.97;;;;;;;22.08;nan;95661.50;5070008;28;20032;-82
2023/08/13 00:33:39;;;;;;;6.25;2.90;;;;;;;22.12;nan;95677.84;5068628;28;20549;-82
2023/08/13 00:36:05;;;;;;;6.05;3.05;;;;;;;22.16;nan;95687.63;5069273;28;20099;-82
2023/08/13 00:38:30;;;;;;;5.10;3.40;;;;;;;21.98;nan;95644.94;5070433;28;20033;-82
2023/08/13 00:40:56;;;;;;;4.53;3.35;;;;;;;21.97;nan;95654.94;5069830;28;20483;-82
2023/08/13 00:43:21;;;;;;;6.78;3.35;;;;;;;22.00;nan;95667.78;5069289;28;20071;-82
2023/08/13 00:45:47;;;;;;;4.00;3.28;;;;;;;21.71;nan;95632.81;5070677;28;20473;-82
2023/08/13 00:48:13;;;;;;;6.13;2.90;;;;;;;21.69;nan;95622.31;5068490;28;20028;-81
2023/08/13 00:50:39;;;;;;;4.45;2.92;;;;;;;21.69;nan;95637.72;5069619;28;20051;-82
2023/08/13 00:53:06;;;;;;;4.25;3.03;;;;;;;21.85;nan;95665.69;5070422;28;20043;-82
2023/08/13 00:55:35;;;;;;;5.50;3.58;;;;;;;21.56;nan;95639.59;5072737;28;20101;-81
2023/08/13 00:58:00;;;;;;;4.78;3.22;;;;;;;21.39;nan;95618.97;5067998;28;20043;-82
2023/08/13 01:00:27;;;;;;;4.90;3.17;;;;;;;21.36;nan;95641.19;5069568;28;20020;-82
2023/08/13 01:02:52;;;;;;;4.20;3.45;;;;;;;21.51;nan;95661.41;5068739;28;20041;-82
2023/08/13 01:05:23;;;;;;;5.90;3.45;;;;;;;21.21;nan;95614.81;5068837;28;20086;-82
2023/08/13 01:08:09;;;;;;;6.57;3.70;;;;;;;21.15;nan;95624.22;5067810;28;20040;-83
2023/08/13 01:10:36;;;;;;;4.57;3.20;;;;;;;21.42;nan;95671.47;5070002;28;20040;-82
2023/08/13 01:13:13;;;;;;;9.45;3.67;;;;;;;21.29;nan;95669.81;5070147;28;20037;-81
2023/08/13 01:15:42;;;;;;;5.57;3.45;;;;;;;21.27;nan;95669.38;5068920;28;20060;-81
2023/08/13 01:18:09;;;;;;;6.18;3.55;;;;;;;21.25;nan;95669.72;5067490;28;20100;-81
2023/08/13 01:20:37;;;;;;;4.72;3.10;;;;;;;20.88;nan;95617.44;5069401;28;20066;-81
2023/08/13 01:23:03;;;;;;;6.75;3.38;;;;;;;20.82;nan;95632.25;5071483;28;20032;-81
2023/08/13 01:25:29;;;;;;;4.22;3.22;;;;;;;20.75;nan;95626.56;5069393;28;20090;-81
2023/08/13 01:27:57;;;;;;;4.80;3.65;;;;;;;20.90;nan;95663.75;5069840;28;20036;-81
2023/08/13 01:30:28;;;;;;;5.53;3.88;;;;;;;20.57;nan;95625.88;5070597;28;20036;-81
2023/08/13 01:33:02;;;;;;;5.40;4.10;;;;;;;20.63;nan;95665.00;5052398;28;20036;-81
2023/08/13 01:35:31;;;;;;;4.45;3.40;;;;;;;20.17;nan;95582.31;5074171;28;20375;-81
2023/08/13 01:37:59;;;;;;;4.88;3.28;;;;;;;19.82;nan;95524.38;5072563;28;20032;-81
2023/08/13 01:40:25;;;;;;;10.05;4.03;;;;;;;20.56;nan;95667.41;5074402;28;20131;-81
2023/08/13 01:42:50;;;;;;;4.82;3.60;;;;;;;20.23;nan;95636.78;5072775;28;20079;-81
2023/08/13 01:45:15;;;;;;;8.02;4.32;;;;;;;19.98;nan;95615.03;5072216;28;20036;-80
2023/08/13 01:47:41;;;;;;;5.95;3.75;;;;;;;19.77;nan;95583.72;5072815;28;20032;-81
2023/08/13 01:50:07;;;;;;;7.97;3.90;;;;;;;19.92;nan;95599.34;5073934;28;20461;-81
2023/08/13 01:52:33;;;;;;;7.32;4.03;;;;;;;19.20;nan;95501.44;5074307;28;20436;-81
2023/08/13 01:54:58;;;;;;;8.27;3.92;;;;;;;19.99;nan;95623.88;5073922;28;20047;-81
2023/08/13 01:57:24;;;;;;;4.90;3.72;;;;;;;19.87;nan;95621.06;5072586;28;20036;-80
2023/08/13 01:59:49;;;;;;;8.40;4.05;;;;;;;20.02;nan;95637.50;5071121;28;20459;-81
2023/08/13 02:02:15;;;;;;;4.43;3.88;;;;;;;19.97;nan;95635.00;5073478;28;20041;-81
2023/08/13 02:04:40;;;;;;;8.93;3.65;;;;;;;19.42;nan;95556.13;5073363;28;20028;-81
2023/08/13 02:07:05;;;;;;;6.57;4.40;;;;;;;19.89;nan;95629.63;5073536;28;20504;-80
2023/08/13 02:09:31;;;;;;;7.28;3.80;;;;;;;19.80;nan;95636.94;5072091;28;20029;-80
2023/08/13 02:11:56;;;;;;;9.85;4.35;;;;;;;19.90;nan;95645.47;5075850;28;20032;-81
2023/08/13 02:14:22;;;;;;;9.05;4.15;;;;;;;19.97;nan;95663.81;5072069;28;20052;-81
2023/08/13 02:16:47;;;;;;;8.35;4.40;;;;;;;19.81;nan;95660.84;5072442;28;20052;-81
2023/08/13 02:19:12;;;;;;;7.60;4.78;;;;;;;19.53;nan;95625.41;5073212;28;20047;-80
2023/08/13 02:21:39;;;;;;;10.38;4.10;;;;;;;19.23;nan;95610.22;5072878;28;20082;-81
2023/08/13 02:24:05;;;;;;;6.97;3.90;;;;;;;19.53;nan;95646.16;5071670;28;20029;-81
2023/08/13 02:26:30;;;;;;;7.78;4.03;;;;;;;19.64;nan;95658.16;5073214;28;20035;-82
2023/08/13 02:28:56;;;;;;;9.07;4.45;;;;;;;19.74;nan;95671.31;5072401;28;20036;-82
2023/08/13 02:31:21;;;;;;;8.07;4.18;;;;;;;19.41;nan;95619.88;5070599;28;20059;-82
2023/08/13 02:33:47;;;;;;;8.60;4.20;;;;;;;19.67;nan;95667.50;5071986;28;20059;-82
2023/08/13 02:36:12;;;;;;;5.97;4.13;;;;;;;19.46;nan;95643.13;5074603;28;20486;-81
2023/08/13 02:38:37;;;;;;;8.50;4.30;;;;;;;19.13;nan;95627.50;5072571;28;20479;-81
2023/08/13 02:41:03;;;;;;;10.90;4.30;;;;;;;19.26;nan;95642.66;5071153;28;20108;-82
2023/08/13 02:43:47;;;;;;;12.52;4.85;;;;;;;19.11;nan;95621.63;5072205;28;20111;-82
2023/08/13 02:46:13;;;;;;;8.57;4.03;;;;;;;19.50;nan;95677.19;5070034;28;20028;-82
2023/08/13 02:48:38;;;;;;;10.60;4.70;;;;;;;19.48;nan;95675.91;5072152;28;20043;-82
2023/08/13 02:51:04;;;;;;;8.60;4.63;;;;;;;19.10;nan;95625.41;5070144;28;20051;-82
2023/08/13 02:53:29;;;;;;;7.45;4.47;;;;;;;19.26;nan;95642.66;5071191;28;20119;-82
2023/08/13 02:55:54;;;;;;;11.57;4.20;;;;;;;19.40;nan;95665.91;5071523;28;20021;-81
2023/08/13 02:58:20;;;;;;;8.13;5.53;;;;;;;19.30;nan;95647.41;5071001;28;20040;-82
2023/08/13 03:00:45;;;;;;;11.38;4.78;;;;;;;19.39;nan;95665.13;5070270;28;20502;-82
2023/08/13 03:03:11;;;;;;;12.43;4.30;;;;;;;19.54;nan;95686.19;5071019;28;20124;-82
2023/08/13 03:05:36;;;;;;;7.25;4.38;;;;;;;19.41;nan;95680.94;5071484;28;20088;-82
2023/08/13 03:08:02;;;;;;;11.88;4.40;;;;;;;19.27;nan;95671.13;5069653;28;20036;-82
2023/08/13 03:10:27;;;;;;;11.13;4.78;;;;;;;19.03;nan;95684.25;5069647;28;20037;-82
2023/08/13 03:12:52;;;;;;;9.88;4.63;;;;;;;18.99;nan;95688.69;5070854;28;20084;-82
2023/08/13 03:15:18;;;;;;;9.63;5.03;;;;;;;18.81;nan;95681.69;5070120;28;20037;-82
2023/08/13 03:17:43;;;;;;;7.88;4.88;;;;;;;18.78;nan;95676.91;5069986;28;20033;-82
2023/08/13 03:20:09;;;;;;;7.75;4.30;;;;;;;18.82;nan;95692.13;5070049;28;20143;-82
2023/08/13 03:22:35;;;;;;;6.20;4.50;;;;;;;18.57;nan;95654.44;5071669;28;20502;-82
2023/08/13 03:25:00;;;;;;;7.88;4.53;;;;;;;18.76;nan;95644.22;5070464;28;20043;-82
2023/08/13 03:27:25;;;;;;;8.52;4.55;;;;;;;18.59;nan;95611.94;5067616;28;20032;-82
2023/08/13 03:29:51;;;;;;;13.57;4.07;;;;;;;19.18;nan;95689.16;5069815;28;20400;-82
2023/08/13 03:32:16;;;;;;;5.68;4.13;;;;;;;18.94;nan;95645.00;5071078;28;20033;-81
2023/08/13 03:34:42;;;;;;;7.25;4.20;;;;;;;18.66;nan;95588.88;5071597;28;20043;-80
2023/08/13 03:37:07;;;;;;;9.23;4.40;;;;;;;18.84;nan;95632.69;5070023;28;20035;-81
2023/08/13 03:39:32;;;;;;;8.07;4.30;;;;;;;18.58;nan;95583.50;5070269;28;20063;-81
2023/08/13 03:41:58;;;;;;;9.10;4.32;;;;;;;19.19;nan;95671.94;5069707;28;20039;-81
2023/08/13 03:44:24;;;;;;;6.55;4.95;;;;;;;19.28;nan;95663.88;5070141;28;20029;-81
2023/08/13 03:46:49;;;;;;;7.10;4.13;;;;;;;19.19;nan;95661.16;5071055;28;20475;-81
2023/08/13 03:49:14;;;;;;;11.20;4.40;;;;;;;19.08;nan;95656.41;5070382;28;20139;-81
2023/08/13 03:51:40;;;;;;;7.75;4.43;;;;;;;19.16;nan;95655.63;5073470;28;20042;-81
2023/08/13 03:54:05;;;;;;;8.20;5.03;;;;;;;18.88;nan;95622.88;5072716;28;20028;-81
2023/08/13 03:56:31;;;;;;;7.03;4.47;;;;;;;18.77;nan;95643.09;5072471;28;20044;-81
2023/08/13 03:58:56;;;;;;;6.68;4.78;;;;;;;18.77;nan;95649.25;5072310;28;20025;-81
2023/08/13 04:01:22;;;;;;;7.30;4.28;;;;;;;18.98;nan;95697.06;5073269;28;20020;-81
2023/08/13 04:03:47;;;;;;;6.40;4.20;;;;;;;18.67;nan;95640.72;5074340;28;20037;-81
2023/08/13 04:06:12;;;;;;;9.40;4.60;;;;;;;18.68;nan;95704.88;5082700;28;20024;-80
2023/08/13 04:08:38;;;;;;;6.13;4.40;;;;;;;18.61;nan;95685.75;5072549;28;20032;-80
2023/08/13 04:11:04;;;;;;;8.70;4.47;;;;;;;18.80;nan;95701.59;5071017;28;20024;-81
2023/08/13 04:13:29;;;;;;;6.43;4.32;;;;;;;18.58;nan;95648.75;5071774;28;20430;-81
2023/08/13 04:15:56;;;;;;;7.07;4.97;;;;;;;19.03;nan;95704.97;5070728;28;20127;-81
2023/08/13 04:18:22;;;;;;;8.32;4.80;;;;;;;18.94;nan;95691.50;5066050;28;20542;-81
2023/08/13 04:20:47;;;;;;;7.28;4.80;;;;;;;18.76;nan;95671.88;5069365;28;20032;-81
2023/08/13 04:23:13;;;;;;;7.38;4.75;;;;;;;18.66;nan;95653.34;5053029;28;20529;-81
2023/08/13 04:25:39;;;;;;;10.23;5.15;;;;;;;19.13;nan;95724.28;5069110;28;20409;-81
2023/08/13 04:28:05;;;;;;;9.35;4.88;;;;;;;19.01;nan;95699.88;5083276;28;20032;-81
2023/08/13 04:30:31;;;;;;;9.57;4.93;;;;;;;18.99;nan;95717.44;5070171;28;20128;-81
2023/08/13 04:32:57;;;;;;;12.45;5.30;;;;;;;19.12;nan;95724.59;5072045;28;20067;-81
2023/08/13 04:35:23;;;;;;;12.00;5.55;;;;;;;18.95;nan;95693.09;5071783;28;20117;-81
2023/08/13 04:37:52;;;;;;;11.85;5.47;;;;;;;18.79;nan;95670.44;5070115;28;20104;-81
2023/08/13 04:40:18;;;;;;;8.93;5.38;;;;;;;19.31;nan;95737.72;5069562;28;20060;-81
2023/08/13 04:42:43;;;;;;;8.82;5.10;;;;;;;19.17;nan;95698.34;5069613;28;20117;-82
2023/08/13 04:45:09;;;;;;;11.23;4.93;;;;;;;19.39;nan;95728.88;5071137;28;20021;-82
2023/08/13 04:47:35;;;;;;;7.13;5.25;;;;;;;18.99;nan;95659.13;5070396;28;20467;-82
2023/08/13 04:50:00;;;;;;;12.02;5.45;;;;;;;19.08;nan;95667.16;5069510;28;20086;-82
2023/08/13 04:52:26;;;;;;;7.32;5.32;;;;;;;19.29;nan;95730.00;5073844;28;20402;-82
2023/08/13 04:54:51;;;;;;;9.15;5.88;;;;;;;19.45;nan;95743.78;5069578;28;20489;-82
2023/08/13 04:57:17;;;;;;;11.80;6.47;;;;;;;19.45;nan;95741.06;5068634;28;20071;-82
2023/08/13 04:59:42;;;;;;;8.00;4.95;;;;;;;19.39;nan;95742.31;5060560;28;20348;-82
2023/08/13 05:02:08;;;;;;;11.68;5.35;;;;;;;19.30;nan;95741.53;5071317;28;20033;-82
2023/08/13 05:04:33;;;;;;;7.35;5.10;;;;;;;19.25;nan;95737.09;5068459;28;20380;-82
2023/08/13 05:06:58;;;;;;;9.43;5.18;;;;;;;19.07;nan;95695.94;5070322;28;20032;-82
2023/08/13 05:09:24;;;;;;;8.85;5.07;;;;;;;19.26;nan;95726.03;5072725;28;20101;-81
2023/08/13 05:11:49;;;;;;;12.68;4.82;;;;;;;18.88;nan;95682.00;5074091;28;20142;-82
2023/08/13 05:14:15;;;;;;;7.68;4.97;;;;;;;19.33;nan;95716.69;5072054;28;20471;-82
2023/08/13 05:16:40;;;;;;;14.45;5.50;;;;;;;19.19;nan;95709.56;5073751;28;20072;-82
2023/08/13 05:19:06;;;;;;;8.85;5.22;;;;;;;18.74;nan;95643.72;5074164;28;20041;-82
2023/08/13 05:21:31;;;;;;;10.55;5.20;;;;;;;19.51;nan;95748.72;5073599;28;20383;-82
2023/08/13 05:23:57;;;;;;;11.32;5.53;;;;;;;19.03;nan;95640.44;5073778;28;20041;-82
2023/08/13 05:26:22;;;;;;;6.78;4.65;;;;;;;19.59;nan;95744.44;5071753;28;20061;-81
2023/08/13 05:28:48;;;;;;;10.68;4.90;;;;;;;19.11;nan;95661.16;5073314;28;20047;-82
2023/08/13 05:31:13;;;;;;;8.63;4.70;;;;;;;19.56;nan;95724.31;5072037;28;20458;-81
2023/08/13 05:33:39;;;;;;;12.63;5.28;;;;;;;19.72;nan;95751.56;5086788;28;20502;-82
2023/08/13 05:36:04;;;;;;;9.45;4.97;;;;;;;19.67;nan;95732.88;5073309;28;20029;-82
2023/08/13 05:38:31;;;;;;;9.20;5.57;;;;;;;19.58;nan;95700.59;5072212;28;20040;-82
2023/08/13 05:40:57;;;;;;;12.55;4.97;;;;;;;19.77;nan;95719.09;5073634;28;20107;-81
2023/08/13 05:43:22;;;;;;;12.65;5.50;;;;;;;19.87;nan;95745.69;5072267;28;20029;-82
2023/08/13 05:45:48;;;;;;;10.23;5.47;;;;;;;19.97;nan;95753.44;5072082;28;20509;-82
2023/08/13 05:48:13;;;;;;;10.40;4.97;;;;;;;19.84;nan;95715.91;5072723;28;20048;-82
2023/08/13 05:50:39;;;;;;;8.82;5.43;;;;;;;19.58;nan;95662.13;5074102;28;20033;-82
2023/08/13 05:53:05;;;;;;;7.72;4.55;;;;;;;19.95;nan;95715.28;5073071;28;20490;-81
2023/08/13 05:55:30;;;;;;;17.00;5.50;;;;;;;20.14;nan;95728.34;5074398;28;20039;-81
2023/08/13 05:57:56;;;;;;;7.45;5.68;;;;;;;19.95;nan;95704.50;5074797;28;20041;-81
2023/08/13 06:00:21;;;;;;;9.93;5.63;;;;;;;19.82;nan;95689.34;5072918;28;20522;-81
2023/08/13 06:02:47;;;;;;;11.98;6.38;;;;;;;19.96;nan;95726.84;5078665;28;20024;-81
2023/08/13 06:05:12;;;;;;;10.85;5.55;;;;;;;19.88;nan;95695.34;5074448;28;20490;-81
2023/08/13 06:07:38;;;;;;;9.25;6.05;;;;;;;20.31;nan;95749.88;5074029;28;20203;-81
2023/08/13 06:10:04;;;;;;;11.63;5.57;;;;;;;20.36;nan;95746.25;5072526;28;20032;-81
2023/08/13 06:12:30;;;;;;;9.55;5.97;;;;;;;20.38;nan;95744.81;5076563;28;20032;-81
2023/08/13 06:14:56;;;;;;;10.60;5.60;;;;;;;20.32;nan;95734.50;5073226;28;20418;-81
2023/08/13 06:17:21;;;;;;;11.45;5.93;;;;;;;20.41;nan;95732.59;5071976;28;20033;-81
2023/08/13 06:19:47;;;;;;;7.50;5.70;;;;;;;20.59;nan;95747.63;5072516;28;20479;-81
2023/08/13 06:22:13;;;;;;;11.23;6.30;;;;;;;20.53;nan;95735.41;5074874;28;20045;-81
2023/08/13 06:24:39;;;;;;;11.02;6.07;;;;;;;20.25;nan;95683.03;5075606;28;20501;-81
2023/08/13 06:27:04;;;;;;;11.45;5.50;;;;;;;20.58;nan;95732.56;5074570;28;20028;-81
2023/08/13 06:29:30;;;;;;;10.57;5.90;;;;;;;19.98;nan;95630.41;5073504;28;20032;-81
2023/08/13 06:31:55;;;;;;;9.02;5.10;;;;;;;20.75;nan;95745.16;5073980;28;20029;-81
2023/08/13 06:34:21;;;;;;;11.98;5.90;;;;;;;20.26;nan;95671.16;5074648;28;20060;-81
2023/08/13 06:36:46;;;;;;;10.52;5.15;;;;;;;20.21;nan;95650.59;5071389;28;20036;-81
2023/08/13 06:39:12;;;;;;;15.43;6.05;;;;;;;20.76;nan;95728.66;5078997;28;20024;-81
2023/08/13 06:41:37;;;;;;;9.13;5.00;;;;;;;20.92;nan;95745.06;5072275;28;20040;-81
2023/08/13 06:44:04;;;;;;;7.50;5.03;;;;;;;20.93;nan;95722.38;5074279;28;20112;-81
2023/08/13 06:46:29;;;;;;;15.50;5.68;;;;;;;20.65;nan;95687.03;5073916;28;20044;-81
2023/08/13 06:48:54;;;;;;;11.65;4.82;;;;;;;20.97;nan;95741.41;5075342;28;20210;-81
2023/08/13 06:51:20;;;;;;;12.23;5.18;;;;;;;20.77;nan;95700.59;5072547;28;20032;-81
2023/08/13 06:53:45;;;;;;;7.78;5.00;;;;;;;21.00;nan;95728.06;5076860;28;20048;-81
2023/08/13 06:56:11;;;;;;;13.82;5.00;;;;;;;21.06;nan;95729.44;5073842;28;20037;-81
2023/08/13 06:58:36;;;;;;;7.95;5.18;;;;;;;20.97;nan;95698.28;5072993;28;20024;-81
2023/08/13 07:01:03;;;;;;;8.70;4.35;;;;;;;20.98;nan;95711.41;5073485;28;20024;-81
2023/08/13 07:03:28;;;;;;;10.70;4.65;;;;;;;21.08;nan;95710.25;5076986;28;20029;-81
2023/08/13 07:05:54;;;;;;;10.93;4.10;;;;;;;21.29;nan;95729.16;5072905;28;20039;-82
2023/08/13 07:08:21;;;;;;;9.75;4.05;;;;;;;21.34;nan;95729.00;5071418;28;20036;-82
2023/08/13 07:10:46;;;;;;;7.88;4.45;;;;;;;21.18;nan;95704.50;5072243;28;20071;-82
2023/08/13 07:13:12;;;;;;;15.15;4.60;;;;;;;21.38;nan;95736.09;5069850;28;20112;-82
2023/08/13 07:15:37;;;;;;;8.77;4.53;;;;;;;21.24;nan;95703.19;5071293;28;20135;-81
2023/08/13 07:18:03;;;;;;;7.90;4.38;;;;;;;21.22;nan;95678.44;5077910;28;20032;-82
2023/08/13 07:20:29;;;;;;;9.43;4.75;;;;;;;20.95;nan;95623.09;5067996;28;20036;-82
2023/08/13 07:22:58;;;;;;;6.97;3.75;;;;;;;21.67;nan;95723.66;5072379;28;20020;-82
2023/08/13 07:25:24;;;;;;;8.15;3.75;;;;;;;21.68;nan;95717.91;5070778;28;20071;-82
2023/08/13 07:27:49;;;;;;;7.10;3.47;;;;;;;21.77;nan;95713.25;5075891;28;20056;-82
2023/08/13 07:30:15;;;;;;;9.27;4.00;;;;;;;21.82;nan;95713.03;5069924;28;20047;-82
2023/08/13 07:32:40;;;;;;;7.80;3.65;;;;;;;21.82;nan;95717.63;5069032;28;20060;-82
2023/08/13 07:35:06;;;;;;;9.45;4.40;;;;;;;21.94;nan;95731.19;5071703;28;20076;-82
2023/08/13 07:37:34;;;;;;;7.57;3.97;;;;;;;21.99;nan;95719.41;5070072;28;20033;-82
2023/08/13 07:40:00;;;;;;;9.32;4.18;;;;;;;22.08;nan;95720.91;5071252;28;20101;-82
2023/08/13 07:42:25;;;;;;;5.72;3.95;;;;;;;21.92;nan;95690.22;5069929;28;20083;-82
2023/08/13 07:44:51;;;;;;;10.52;4.32;;;;;;;22.15;nan;95720.38;5069328;28;20537;-82
2023/08/13 07:47:17;;;;;;;7.18;3.70;;;;;;;22.02;nan;95703.34;5071118;28;20036;-82
2023/08/13 07:49:42;;;;;;;6.38;3.38;;;;;;;21.92;nan;95680.22;5069093;28;20060;-82
2023/08/13 07:52:08;;;;;;;8.50;3.90;;;;;;;22.01;nan;95680.16;5071134;28;20056;-82
2023/08/13 07:54:36;;;;;;;9.45;3.95;;;;;;;22.06;nan;95685.34;5073730;28;20024;-82
2023/08/13 07:57:02;;;;;;;10.77;3.60;;;;;;;22.43;nan;95715.91;5069207;28;20052;-83
2023/08/13 07:59:28;;;;;;;5.63;3.80;;;;;;;22.50;nan;95713.47;5070748;28;20118;-82
2023/08/13 08:01:53;;;;;;;13.57;4.28;;;;;;;21.90;nan;95595.25;5070879;28;20036;-82
2023/08/13 08:04:19;;;;;;;6.72;4.00;;;;;;;22.61;nan;95709.19;5076326;28;20375;-82
2023/08/13 08:06:44;;;;;;;6.78;3.88;;;;;;;22.16;nan;95619.31;5070664;28;20048;-82
2023/08/13 08:09:10;;;;;;;5.00;3.88;;;;;;;22.34;nan;95653.09;5069707;28;20035;-82
2023/08/13 08:11:36;;;;;;;8.65;3.80;;;;;;;22.66;nan;95691.94;5068675;28;20109;-81
2023/08/13 08:14:02;;;;;;;6.78;3.67;;;;;;;22.39;nan;95644.78;5076159;28;20056;-81
2023/08/13 08:16:28;;;;;;;7.15;3.55;;;;;;;22.57;nan;95650.75;5071057;28;20032;-81
2023/08/13 08:18:53;;;;;;;12.18;4.43;;;;;;;22.09;nan;95560.44;5072431;28;20096;-81
2023/08/13 08:21:19;;;;;;;6.88;3.65;;;;;;;23.02;nan;95693.91;5070318;28;20478;-81
2023/08/13 08:23:44;;;;;;;6.05;4.05;;;;;;;23.05;nan;95685.88;5072693;28;20054;-81
2023/08/13 08:26:10;;;;;;;4.78;3.15;;;;;;;22.82;nan;95635.31;5071173;28;20084;-81
2023/08/13 08:28:35;;;;;;;10.05;3.50;;;;;;;22.81;nan;95626.41;5069941;28;20036;-81
2023/08/13 08:31:00;;;;;;;7.22;3.15;;;;;;;23.25;nan;95681.47;5069563;28;20063;-81
2023/08/13 08:33:26;;;;;;;7.93;3.50;;;;;;;23.23;nan;95661.28;5077059;28;20055;-81
2023/08/13 08:35:51;;;;;;;5.05;3.17;;;;;;;23.25;nan;95645.50;5071750;28;20432;-81
2023/08/13 08:38:17;;;;;;;5.60;3.95;;;;;;;23.08;nan;95614.88;5071076;28;20036;-81
2023/08/13 08:40:44;;;;;;;7.90;3.50;;;;;;;23.26;nan;95631.63;5070455;28;20548;-81
2023/08/13 08:43:12;;;;;;;7.57;3.47;;;;;;;23.53;nan;95661.78;5072436;28;20040;-81
2023/08/13 08:45:38;;;;;;;10.93;3.50;;;;;;;23.29;nan;95622.81;5075633;28;20404;-81
2023/08/13 08:48:07;;;;;;;9.32;3.38;;;;;;;23.67;nan;95660.25;5075895;28;20043;-81
2023/08/13 08:50:36;;;;;;;8.63;3.92;;;;;;;23.71;nan;95666.56;5074102;28;20100;-81
2023/08/13 08:53:02;;;;;;;5.45;3.55;;;;;;;23.77;nan;95659.78;5078659;28;20463;-81
2023/08/13 08:55:27;;;;;;;4.30;3.53;;;;;;;23.49;nan;95601.38;5079888;28;20043;-81
2023/08/13 08:57:56;;;;;;;5.03;3.53;;;;;;;23.51;nan;95594.44;5074204;28;20040;-81
2023/08/13 09:00:22;;;;;;;5.68;3.55;;;;;;;23.93;nan;95657.09;5074728;28;20091;-81
2023/08/13 09:02:48;;;;;;;6.43;3.38;;;;;;;23.25;nan;95556.22;5074696;28;20040;-81
2023/08/13 09:05:15;;;;;;;5.13;3.00;;;;;;;22.79;nan;95468.38;5074141;28;20055;-81
2023/08/13 09:07:42;;;;;;;5.63;3.20;;;;;;;23.94;nan;95636.22;5075372;28;20209;-81
2023/08/13 09:10:09;;;;;;;5.22;2.97;;;;;;;23.69;nan;95586.81;5074181;28;20039;-81
2023/08/13 09:12:40;;;;;;;5.72;3.20;;;;;;;24.07;nan;95630.38;5075689;28;20028;-81
2023/08/13 09:15:06;;;;;;;;;;;;;;;24.29;nan;95652.63;5076680;28;20040;-81
2023/08/13 09:17:32;;;;;;;3.47;2.78;;;;;;;24.18;nan;95623.28;5075919;28;19990;-81
2023/08/13 09:20:00;;;;;;;4.78;3.38;;;;;;;24.09;nan;95601.03;5078830;28;20028;-81
2023/08/13 09:22:32;;;;;;;4.68;2.90;;;;;;;24.34;nan;95636.09;5074188;28;20457;-81
2023/08/13 09:25:01;;;;;;;4.28;3.47;;;;;;;24.38;nan;95639.69;5078160;28;20504;-81
2023/08/13 09:27:27;;;;;;;6.18;3.35;;;;;;;24.51;nan;95633.81;5074550;28;20051;-81
2023/08/13 09:29:57;;;;;;;6.15;2.92;;;;;;;24.61;nan;95636.00;5076080;28;20040;-81
2023/08/13 09:32:22;;;;;;;6.40;3.38;;;;;;;24.34;nan;95584.59;5075503;28;20376;-81
2023/08/13 09:34:51;;;;;;;7.80;3.30;;;;;;;24.20;nan;95539.75;5078063;28;20051;-81
2023/08/13 09:37:17;;;;;;;5.18;3.55;;;;;;;24.64;nan;95593.84;5079199;28;20032;-81
2023/08/13 09:39:42;;;;;;;6.63;3.15;;;;;;;24.65;nan;95575.63;5073661;28;20431;-81
2023/08/13 09:42:08;;;;;;;6.38;3.20;;;;;;;24.81;nan;95589.94;5073883;28;20107;-81
2023/08/13 09:44:34;;;;;;;4.60;3.15;;;;;;;24.93;nan;95604.22;5080531;28;20032;-81
2023/08/13 09:47:05;;;;;;;7.75;3.20;;;;;;;25.20;nan;95612.50;5074180;28;20025;-81
2023/08/13 09:49:33;;;;;;;5.57;3.30;;;;;;;25.39;nan;95634.25;5072774;28;20136;-82
2023/08/13 09:52:01;;;;;;;6.22;3.00;;;;;;;25.42;nan;95628.09;5075148;28;20097;-82
2023/08/13 09:54:36;;;;;;;8.13;3.58;;;;;;;24.80;nan;95534.13;5076732;28;20028;-81
2023/08/13 09:57:03;;;;;;;10.60;4.00;;;;;;;25.41;nan;95615.66;5074058;28;20042;-81
2023/08/13 09:59:32;;;;;;;4.63;3.20;;;;;;;25.36;nan;95603.16;5073906;28;20039;-81
2023/08/13 10:01:58;;;;;;;11.98;3.55;;;;;;;25.21;nan;95565.25;5073922;28;20495;-81
2023/08/13 10:04:24;;;;;;;10.93;3.25;;;;;;;25.59;nan;95616.06;5074509;28;20073;-81
2023/08/13 10:06:51;;;;;;;5.88;3.08;;;;;;;25.70;nan;95598.03;5074485;28;20111;-82
2023/08/13 10:09:17;;;;;;;7.22;3.20;;;;;;;25.75;nan;95525.19;5073181;28;20032;-81
2023/08/13 10:11:42;;;;;;;4.40;3.15;;;;;;;26.55;nan;95598.75;5073864;28;20047;-81
2023/08/13 10:14:08;;;;;;;7.15;3.33;;;;;;;27.08;nan;95626.75;5073986;28;20147;-82
2023/08/13 10:16:34;;;;;;;5.50;3.40;;;;;;;27.38;nan;95611.22;5074333;28;20031;-81
2023/08/13 10:19:01;;;;;;;6.03;3.58;;;;;;;27.68;nan;95622.09;5075208;28;20028;-81
2023/08/13 10:21:36;;;;;;;5.47;2.97;;;;;;;27.79;nan;95624.94;5073727;28;20040;-81
2023/08/13 10:24:03;;;;;;;5.90;3.17;;;;;;;27.60;nan;95623.16;5075426;28;20040;-81
2023/08/13 10:26:28;;;;;;;5.05;2.90;;;;;;;27.63;nan;95622.41;5071871;28;20028;-82
2023/08/13 10:28:54;;;;;;;5.75;3.25;;;;;;;27.60;nan;95618.50;5073236;28;20214;-81
2023/08/13 10:31:22;;;;;;;6.00;2.83;;;;;;;27.61;nan;95628.25;5072403;28;20036;-81
2023/08/13 10:33:59;;;;;;;6.68;3.25;;;;;;;27.50;nan;95624.56;5077115;28;20485;-81
2023/08/13 10:36:49;;;;;;;4.38;3.10;;;;;;;27.28;nan;95599.03;5073209;28;20151;-81
2023/08/13 10:39:38;;;;;;;6.75;3.28;;;;;;;27.33;nan;95627.84;5069114;28;20028;-81
2023/08/13 10:42:25;;;;;;;6.20;3.05;;;;;;;26.97;nan;95599.38;5071755;28;20067;-81
2023/08/13 10:44:50;;;;;;;5.63;3.33;;;;;;;26.84;nan;95566.16;5074167;28;20119;-81
2023/08/13 10:47:16;;;;;;;6.60;3.05;;;;;;;27.10;nan;95624.44;5073028;28;20522;-81
2023/08/13 10:49:42;;;;;;;4.88;3.97;;;;;;;27.07;nan;95606.13;5075085;28;20025;-81
2023/08/13 10:52:08;;;;;;;7.65;3.20;;;;;;;26.80;nan;95578.91;5071478;28;20107;-81
2023/08/13 10:54:33;;;;;;;6.43;3.03;;;;;;;26.89;nan;95603.13;5071251;28;20176;-81
2023/08/13 10:57:01;;;;;;;6.15;3.40;;;;;;;26.76;nan;95561.75;5072823;28;20044;-81
2023/08/13 10:59:32;;;;;;;6.40;3.25;;;;;;;26.85;nan;95564.97;5073475;28;20036;-81
2023/08/13 11:02:19;;;;;;;8.38;3.15;;;;;;;27.43;nan;95589.09;5071409;28;20066;-81
2023/08/13 11:04:46;;;;;;;6.22;3.08;;;;;;;27.89;nan;95564.31;5069095;28;20033;-81
2023/08/13 11:07:13;;;;;;;5.57;3.30;;;;;;;28.50;nan;95560.94;5073429;28;20048;-81
2023/08/13 11:09:39;;;;;;;4.35;2.92;;;;;;;29.41;nan;95609.13;5064430;28;20400;-82
2023/08/13 11:12:07;;;;;;;6.07;3.55;;;;;;;29.90;nan;95602.25;5074278;28;20028;-82
2023/08/13 11:14:33;;;;;;;3.45;3.00;;;;;;;30.14;nan;95601.53;5073647;28;20059;-82
2023/08/13 11:16:59;;;;;;;4.93;3.00;;;;;;;30.12;nan;95570.28;5071809;28;20104;-82
2023/08/13 11:19:24;;;;;;;5.38;3.50;;;;;;;30.19;nan;95573.03;5071733;28;20051;-82
2023/08/13 11:21:51;;;;;;;5.60;3.65;;;;;;;30.32;nan;95590.59;5073298;28;20143;-82
2023/08/13 11:24:17;;;;;;;3.92;3.35;;;;;;;30.37;nan;95601.16;5073178;28;20042;-82
2023/08/13 11:26:42;;;;;;;4.32;3.47;;;;;;;30.78;nan;95590.63;5070162;28;20123;-82
2023/08/13 11:29:07;;;;;;;5.60;3.65;;;;;;;30.70;nan;95534.31;5072709;28;20103;-82
2023/08/13 11:31:33;;;;;;;8.68;2.92;;;;;;;31.03;nan;95536.56;5071293;28;20067;-81
2023/08/13 11:33:59;;;;;;;9.43;3.55;;;;;;;31.71;nan;95596.63;5070710;28;20075;-81
2023/08/13 11:36:25;;;;;;;4.63;3.15;;;;;;;31.47;nan;95568.13;5071690;28;20475;-81
2023/08/13 11:38:50;;;;;;;3.88;2.95;;;;;;;31.24;nan;95551.41;5071366;28;20043;-81
2023/08/13 11:41:16;;;;;;;5.03;3.33;;;;;;;31.21;nan;95552.97;5073322;28;20036;-81
2023/08/13 11:43:42;;;;;;;4.13;2.92;;;;;;;31.08;nan;95600.38;5069930;28;20093;-82
2023/08/13 11:46:08;;;;;;;6.18;3.85;;;;;;;30.86;nan;95574.94;5070804;28;20020;-82